createdAt,value
2023-04-24T01:34:13.881Z,99703.56
2023-04-24T01:43:49.881Z,99696.63
2023-04-24T01:47:58.631Z,99692.50
2023-04-24T01:52:06.978Z,99706.06
2023-04-24T01:56:14.976Z,99705.69
2023-04-24T02:00:23.088Z,99700.09
2023-04-24T02:04:37.960Z,99696.41
2023-04-24T02:08:53.017Z,99672.66
2023-04-24T02:13:16.970Z,99695.44
2023-04-24T02:17:25.711Z,99678.06
2023-04-24T02:21:40.916Z,99690.31
2023-04-24T02:25:49.770Z,99676.56
2023-04-24T02:29:57.913Z,99700.09
2023-04-24T02:34:05.900Z,99694.16
2023-04-24T02:43:31.952Z,99694.81
2023-04-24T02:47:47.000Z,99687.19
2023-04-24T02:51:54.926Z,99704.09
2023-04-24T02:55:56.393Z,99681.41
2023-04-24T03:04:44.148Z,99701.91
2023-04-24T03:08:51.970Z,99697.47
2023-04-24T03:12:53.450Z,99691.63
2023-04-24T03:17:01.872Z,99676.56
2023-04-24T03:21:10.909Z,99692.78
2023-04-24T03:25:18.958Z,99691.13
2023-04-24T03:29:20.688Z,99683.88
2023-04-24T03:33:28.938Z,99696.91
2023-04-24T03:37:36.931Z,99690.56
2023-04-24T04:00:19.900Z,99702.03
2023-04-24T04:04:28.062Z,99694.03
2023-04-24T04:08:29.796Z,99721.66
2023-04-24T04:12:38.109Z,99664.19
2023-04-24T04:58:46.902Z,99759.88
2023-04-24T05:02:48.686Z,99774.25
2023-04-24T05:07:36.926Z,99727.91
2023-04-24T05:11:58.987Z,99755.44
2023-04-24T05:16:07.005Z,99773.28
2023-04-24T05:20:16.024Z,99731.19
2023-04-24T06:01:43.903Z,99773.28
2023-04-24T06:05:52.405Z,99772.22
2023-04-24T06:09:59.880Z,99798.50
2023-04-24T06:14:07.898Z,99771.72
2023-04-24T06:18:18.130Z,99788.78
2023-04-24T06:22:25.872Z,99812.13
2023-04-24T06:31:10.885Z,99810.75
2023-04-24T06:35:19.959Z,99781.59
2023-04-24T06:39:21.548Z,99798.63
2023-04-24T06:48:30.873Z,99735.81
2023-04-24T06:52:53.018Z,99815.13
2023-04-24T06:57:01.777Z,99738.03
2023-04-24T07:01:16.961Z,99813.53
2023-04-24T07:05:27.110Z,99825.88
2023-04-24T07:09:34.975Z,99826.22
2023-04-24T07:13:49.941Z,99823.47
2023-04-24T07:17:51.472Z,99844.25
2023-04-24T07:22:00.135Z,99847.22
2023-04-24T07:26:14.949Z,99878.41
2023-04-24T07:30:22.986Z,99850.22
2023-04-24T07:38:41.892Z,99851.22
2023-04-24T07:42:50.189Z,99801.44
2023-04-24T07:46:58.050Z,99837.97
2023-04-24T07:59:44.342Z,99850.56
2023-04-24T08:03:53.480Z,99834.22
2023-04-24T09:57:44.875Z,100163.63
2023-04-24T10:02:00.165Z,100172.38
2023-04-24T10:06:08.987Z,100160.44
2023-04-24T10:10:17.963Z,100170.72
2023-04-24T11:06:50.905Z,100232.53
2023-04-24T11:11:22.959Z,100240.59
2023-04-24T11:15:37.909Z,100244.88
2023-04-24T11:19:40.112Z,100223.34
2023-04-24T11:48:43.941Z,100210.84
2023-04-24T11:52:52.683Z,100214.34
2023-04-24T11:57:07.913Z,100150.16
2023-04-24T12:57:38.217Z,100144.00
2023-04-24T13:01:59.953Z,100130.28
2023-04-24T13:23:29.125Z,100126.16
2023-04-24T13:28:11.944Z,100133.75
2023-04-24T13:56:48.024Z,100241.22
2023-04-24T14:01:03.300Z,100219.19
2023-04-24T14:05:12.078Z,100111.34
2023-04-24T14:09:19.954Z,100128.25
2023-04-24T14:13:21.665Z,100138.28
